sensor_id;sensor_type;location;lat;lon;timestamp;P1;durP1;ratioP1;P2;durP2;ratioP2
18168;SDS011;49877;50.398;30.324;2022-07-06T00:00:18;7.47;;;6.30;;
18168;SDS011;49877;50.398;30.324;2022-07-06T00:02:45;9.03;;;7.00;;
18168;SDS011;49877;50.398;30.324;2022-07-06T00:05:12;8.37;;;6.63;;
18168;SDS011;49877;50.398;30.324;2022-07-06T00:07:40;12.37;;;6.63;;
18168;SDS011;49877;50.398;30.324;2022-07-06T00:10:07;9.37;;;7.10;;
18168;SDS011;49877;50.398;30.324;2022-07-06T00:12:34;10.30;;;6.30;;
18168;SDS011;49877;50.398;30.324;2022-07-06T00:15:01;7.07;;;6.30;;
18168;SDS011;49877;50.398;30.324;2022-07-06T00:17:28;9.40;;;6.47;;
18168;SDS011;49877;50.398;30.324;2022-07-06T00:19:55;9.17;;;6.40;;
18168;SDS011;49877;50.398;30.324;2022-07-06T00:22:22;9.87;;;7.93;;
18168;SDS011;49877;50.398;30.324;2022-07-06T00:24:50;12.60;;;9.67;;
18168;SDS011;49877;50.398;30.324;2022-07-06T00:27:17;9.40;;;7.50;;
18168;SDS011;49877;50.398;30.324;2022-07-06T00:29:44;10.77;;;7.43;;
18168;SDS011;49877;50.398;30.324;2022-07-06T00:32:11;10.80;;;6.60;;
18168;SDS011;49877;50.398;30.324;2022-07-06T00:34:39;11.23;;;6.77;;
18168;SDS011;49877;50.398;30.324;2022-07-06T00:37:06;11.70;;;7.10;;
18168;SDS011;49877;50.398;30.324;2022-07-06T00:39:33;12.53;;;7.10;;
18168;SDS011;49877;50.398;30.324;2022-07-06T00:42:01;8.13;;;6.83;;
18168;SDS011;49877;50.398;30.324;2022-07-06T00:44:29;9.43;;;7.27;;
18168;SDS011;49877;50.398;30.324;2022-07-06T00:46:57;8.97;;;7.10;;
18168;SDS011;49877;50.398;30.324;2022-07-06T00:49:24;9.83;;;6.80;;
18168;SDS011;49877;50.398;30.324;2022-07-06T00:52:09;8.70;;;6.80;;
18168;SDS011;49877;50.398;30.324;2022-07-06T00:54:36;9.87;;;6.87;;
18168;SDS011;49877;50.398;30.324;2022-07-06T00:57:07;7.73;;;6.40;;
18168;SDS011;49877;50.398;30.324;2022-07-06T00:59:34;16.77;;;7.33;;
18168;SDS011;49877;50.398;30.324;2022-07-06T01:02:01;15.63;;;7.00;;
18168;SDS011;49877;50.398;30.324;2022-07-06T01:04:28;9.67;;;6.23;;
18168;SDS011;49877;50.398;30.324;2022-07-06T01:06:55;9.37;;;5.97;;
18168;SDS011;49877;50.398;30.324;2022-07-06T01:09:23;10.73;;;7.20;;
18168;SDS011;49877;50.398;30.324;2022-07-06T01:11:50;9.37;;;7.30;;
18168;SDS011;49877;50.398;30.324;2022-07-06T01:14:20;9.57;;;6.63;;
18168;SDS011;49877;50.398;30.324;2022-07-06T01:16:47;10.77;;;6.63;;
18168;SDS011;49877;50.398;30.324;2022-07-06T01:19:14;11.30;;;6.97;;
18168;SDS011;49877;50.398;30.324;2022-07-06T01:21:43;8.97;;;6.87;;
18168;SDS011;49877;50.398;30.324;2022-07-06T01:24:10;8.33;;;6.53;;
18168;SDS011;49877;50.398;30.324;2022-07-06T01:26:37;8.60;;;5.93;;
18168;SDS011;49877;50.398;30.324;2022-07-06T01:29:04;9.00;;;6.43;;
18168;SDS011;49877;50.398;30.324;2022-07-06T01:31:31;10.27;;;6.13;;
18168;SDS011;49877;50.398;30.324;2022-07-06T01:33:58;8.90;;;5.90;;
18168;SDS011;49877;50.398;30.324;2022-07-06T01:36:25;7.53;;;6.03;;
18168;SDS011;49877;50.398;30.324;2022-07-06T01:38:54;8.17;;;6.07;;
18168;SDS011;49877;50.398;30.324;2022-07-06T01:41:23;7.97;;;6.07;;
18168;SDS011;49877;50.398;30.324;2022-07-06T01:43:50;11.53;;;6.20;;
18168;SDS011;49877;50.398;30.324;2022-07-06T01:46:17;12.80;;;6.03;;
18168;SDS011;49877;50.398;30.324;2022-07-06T01:48:44;9.40;;;6.10;;
18168;SDS011;49877;50.398;30.324;2022-07-06T01:51:11;9.33;;;5.83;;
18168;SDS011;49877;50.398;30.324;2022-07-06T01:53:38;7.30;;;5.90;;
18168;SDS011;49877;50.398;30.324;2022-07-06T01:56:07;6.63;;;5.30;;
18168;SDS011;49877;50.398;30.324;2022-07-06T01:58:34;9.53;;;6.30;;
18168;SDS011;49877;50.398;30.324;2022-07-06T02:01:06;8.97;;;6.30;;
18168;SDS011;49877;50.398;30.324;2022-07-06T02:03:34;9.23;;;6.10;;
18168;SDS011;49877;50.398;30.324;2022-07-06T02:06:01;21.70;;;6.93;;
18168;SDS011;49877;50.398;30.324;2022-07-06T02:08:28;8.80;;;5.60;;
18168;SDS011;49877;50.398;30.324;2022-07-06T02:10:55;8.97;;;6.50;;
18168;SDS011;49877;50.398;30.324;2022-07-06T02:13:23;9.10;;;6.00;;
18168;SDS011;49877;50.398;30.324;2022-07-06T02:15:50;8.97;;;5.83;;
18168;SDS011;49877;50.398;30.324;2022-07-06T02:18:17;7.90;;;6.13;;
18168;SDS011;49877;50.398;30.324;2022-07-06T02:20:44;8.00;;;5.37;;
18168;SDS011;49877;50.398;30.324;2022-07-06T02:23:11;8.30;;;5.97;;
18168;SDS011;49877;50.398;30.324;2022-07-06T02:25:38;8.33;;;5.73;;
18168;SDS011;49877;50.398;30.324;2022-07-06T02:28:05;6.90;;;5.17;;
18168;SDS011;49877;50.398;30.324;2022-07-06T02:30:33;8.67;;;5.67;;
18168;SDS011;49877;50.398;30.324;2022-07-06T02:33:00;7.97;;;5.57;;
18168;SDS011;49877;50.398;30.324;2022-07-06T02:35:27;8.40;;;5.30;;
18168;SDS011;49877;50.398;30.324;2022-07-06T02:37:54;6.53;;;5.30;;
18168;SDS011;49877;50.398;30.324;2022-07-06T02:40:21;8.43;;;5.40;;
18168;SDS011;49877;50.398;30.324;2022-07-06T02:42:48;6.27;;;5.07;;
18168;SDS011;49877;50.398;30.324;2022-07-06T02:45:15;7.93;;;5.40;;
18168;SDS011;49877;50.398;30.324;2022-07-06T02:47:43;6.83;;;5.23;;
18168;SDS011;49877;50.398;30.324;2022-07-06T02:50:10;6.60;;;5.47;;
18168;SDS011;49877;50.398;30.324;2022-07-06T02:52:37;6.60;;;5.03;;
18168;SDS011;49877;50.398;30.324;2022-07-06T02:55:04;8.83;;;5.17;;
18168;SDS011;49877;50.398;30.324;2022-07-06T02:57:31;7.77;;;4.90;;
18168;SDS011;49877;50.398;30.324;2022-07-06T02:59:58;6.53;;;5.00;;
18168;SDS011;49877;50.398;30.324;2022-07-06T03:02:25;7.00;;;4.90;;
18168;SDS011;49877;50.398;30.324;2022-07-06T03:04:53;6.07;;;5.23;;
18168;SDS011;49877;50.398;30.324;2022-07-06T03:07:21;6.97;;;5.20;;
18168;SDS011;49877;50.398;30.324;2022-07-06T03:09:49;7.80;;;5.13;;
18168;SDS011;49877;50.398;30.324;2022-07-06T03:12:15;7.50;;;4.73;;
18168;SDS011;49877;50.398;30.324;2022-07-06T03:14:42;7.00;;;5.10;;
18168;SDS011;49877;50.398;30.324;2022-07-06T03:17:09;7.30;;;5.60;;
18168;SDS011;49877;50.398;30.324;2022-07-06T03:19:36;7.73;;;5.00;;
18168;SDS011;49877;50.398;30.324;2022-07-06T03:22:04;6.50;;;5.17;;
18168;SDS011;49877;50.398;30.324;2022-07-06T03:24:31;8.67;;;5.27;;
18168;SDS011;49877;50.398;30.324;2022-07-06T03:26:58;6.70;;;5.30;;
18168;SDS011;49877;50.398;30.324;2022-07-06T03:29:25;7.07;;;5.53;;
18168;SDS011;49877;50.398;30.324;2022-07-06T03:31:52;6.20;;;5.10;;
18168;SDS011;49877;50.398;30.324;2022-07-06T03:34:19;8.07;;;5.60;;
18168;SDS011;49877;50.398;30.324;2022-07-06T03:36:46;7.97;;;5.60;;
18168;SDS011;49877;50.398;30.324;2022-07-06T03:39:14;11.73;;;7.60;;
18168;SDS011;49877;50.398;30.324;2022-07-06T03:41:41;12.53;;;6.10;;
18168;SDS011;49877;50.398;30.324;2022-07-06T03:44:08;6.90;;;5.50;;
18168;SDS011;49877;50.398;30.324;2022-07-06T03:46:35;8.73;;;5.73;;
18168;SDS011;49877;50.398;30.324;2022-07-06T03:49:02;6.97;;;5.57;;
18168;SDS011;49877;50.398;30.324;2022-07-06T03:51:29;7.00;;;5.10;;
18168;SDS011;49877;50.398;30.324;2022-07-06T03:53:55;6.57;;;5.13;;
18168;SDS011;49877;50.398;30.324;2022-07-06T03:56:24;7.50;;;5.20;;
18168;SDS011;49877;50.398;30.324;2022-07-06T03:58:53;8.50;;;5.50;;
18168;SDS011;49877;50.398;30.324;2022-07-06T04:01:21;6.10;;;5.00;;
18168;SDS011;49877;50.398;30.324;2022-07-06T04:03:47;8.37;;;5.70;;
18168;SDS011;49877;50.398;30.324;2022-07-06T04:06:15;6.37;;;5.13;;
18168;SDS011;49877;50.398;30.324;2022-07-06T04:08:41;8.90;;;5.17;;
18168;SDS011;49877;50.398;30.324;2022-07-06T04:11:08;7.30;;;4.93;;
18168;SDS011;49877;50.398;30.324;2022-07-06T04:13:37;6.57;;;4.73;;
18168;SDS011;49877;50.398;30.324;2022-07-06T04:16:04;6.13;;;5.27;;
18168;SDS011;49877;50.398;30.324;2022-07-06T04:18:31;9.20;;;5.00;;
18168;SDS011;49877;50.398;30.324;2022-07-06T04:20:58;7.83;;;4.77;;
18168;SDS011;49877;50.398;30.324;2022-07-06T04:23:25;6.67;;;4.60;;
18168;SDS011;49877;50.398;30.324;2022-07-06T04:25:52;5.93;;;4.53;;
18168;SDS011;49877;50.398;30.324;2022-07-06T04:28:19;5.43;;;4.60;;
18168;SDS011;49877;50.398;30.324;2022-07-06T04:30:47;7.15;;;5.22;;
18168;SDS011;49877;50.398;30.324;2022-07-06T04:33:14;9.73;;;5.77;;
18168;SDS011;49877;50.398;30.324;2022-07-06T04:35:41;6.57;;;5.57;;
18168;SDS011;49877;50.398;30.324;2022-07-06T04:38:08;6.57;;;5.15;;
18168;SDS011;49877;50.398;30.324;2022-07-06T04:40:35;11.25;;;5.85;;
18168;SDS011;49877;50.398;30.324;2022-07-06T04:43:02;8.68;;;5.03;;
18168;SDS011;49877;50.398;30.324;2022-07-06T04:45:29;7.57;;;4.40;;
18168;SDS011;49877;50.398;30.324;2022-07-06T04:47:57;6.05;;;4.25;;
18168;SDS011;49877;50.398;30.324;2022-07-06T04:50:24;8.98;;;5.78;;
18168;SDS011;49877;50.398;30.324;2022-07-06T04:52:51;5.32;;;4.50;;
18168;SDS011;49877;50.398;30.324;2022-07-06T04:55:18;8.48;;;4.32;;
18168;SDS011;49877;50.398;30.324;2022-07-06T04:57:45;17.48;;;5.15;;
18168;SDS011;49877;50.398;30.324;2022-07-06T05:00:12;16.17;;;8.93;;
18168;SDS011;49877;50.398;30.324;2022-07-06T05:02:40;8.23;;;5.00;;
18168;SDS011;49877;50.398;30.324;2022-07-06T05:05:08;8.43;;;4.47;;
18168;SDS011;49877;50.398;30.324;2022-07-06T05:07:36;7.60;;;4.97;;
18168;SDS011;49877;50.398;30.324;2022-07-06T05:10:05;9.57;;;4.50;;
18168;SDS011;49877;50.398;30.324;2022-07-06T05:12:33;5.18;;;4.55;;
18168;SDS011;49877;50.398;30.324;2022-07-06T05:15:00;13.15;;;5.03;;
18168;SDS011;49877;50.398;30.324;2022-07-06T05:17:27;9.32;;;6.32;;
18168;SDS011;49877;50.398;30.324;2022-07-06T05:19:54;7.32;;;5.55;;
18168;SDS011;49877;50.398;30.324;2022-07-06T05:22:22;7.72;;;5.45;;
18168;SDS011;49877;50.398;30.324;2022-07-06T05:24:49;8.48;;;5.28;;
18168;SDS011;49877;50.398;30.324;2022-07-06T05:27:16;8.10;;;5.18;;
18168;SDS011;49877;50.398;30.324;2022-07-06T05:29:43;10.10;;;5.63;;
18168;SDS011;49877;50.398;30.324;2022-07-06T05:32:10;10.77;;;5.03;;
18168;SDS011;49877;50.398;30.324;2022-07-06T05:34:37;9.52;;;5.20;;
18168;SDS011;49877;50.398;30.324;2022-07-06T05:37:05;6.90;;;4.80;;
18168;SDS011;49877;50.398;30.324;2022-07-06T05:39:33;7.53;;;4.28;;
18168;SDS011;49877;50.398;30.324;2022-07-06T05:42:00;8.07;;;4.50;;
18168;SDS011;49877;50.398;30.324;2022-07-06T05:44:27;7.95;;;4.60;;
18168;SDS011;49877;50.398;30.324;2022-07-06T05:46:54;10.13;;;5.00;;
18168;SDS011;49877;50.398;30.324;2022-07-06T05:49:41;9.13;;;4.28;;
18168;SDS011;49877;50.398;30.324;2022-07-06T05:52:25;6.10;;;4.15;;
18168;SDS011;49877;50.398;30.324;2022-07-06T05:54:53;8.40;;;4.07;;
18168;SDS011;49877;50.398;30.324;2022-07-06T05:57:20;5.13;;;3.88;;
18168;SDS011;49877;50.398;30.324;2022-07-06T05:59:47;6.40;;;4.03;;
18168;SDS011;49877;50.398;30.324;2022-07-06T06:02:14;5.97;;;4.30;;
18168;SDS011;49877;50.398;30.324;2022-07-06T06:04:41;6.00;;;4.55;;
18168;SDS011;49877;50.398;30.324;2022-07-06T06:07:08;6.63;;;3.67;;
18168;SDS011;49877;50.398;30.324;2022-07-06T06:09:35;5.65;;;4.15;;
18168;SDS011;49877;50.398;30.324;2022-07-06T06:12:03;7.28;;;4.70;;
18168;SDS011;49877;50.398;30.324;2022-07-06T06:14:30;7.28;;;4.38;;
18168;SDS011;49877;50.398;30.324;2022-07-06T06:16:57;5.45;;;4.35;;
18168;SDS011;49877;50.398;30.324;2022-07-06T06:19:25;7.50;;;4.20;;
18168;SDS011;49877;50.398;30.324;2022-07-06T06:21:51;7.13;;;4.57;;
18168;SDS011;49877;50.398;30.324;2022-07-06T06:24:18;12.55;;;4.50;;
18168;SDS011;49877;50.398;30.324;2022-07-06T06:26:45;5.15;;;4.40;;
18168;SDS011;49877;50.398;30.324;2022-07-06T06:29:14;8.90;;;4.50;;
18168;SDS011;49877;50.398;30.324;2022-07-06T06:31:40;12.93;;;6.10;;
18168;SDS011;49877;50.398;30.324;2022-07-06T06:34:08;10.13;;;6.55;;
18168;SDS011;49877;50.398;30.324;2022-07-06T06:36:35;8.82;;;5.05;;
18168;SDS011;49877;50.398;30.324;2022-07-06T06:39:02;10.02;;;4.80;;
18168;SDS011;49877;50.398;30.324;2022-07-06T06:41:29;5.90;;;4.75;;
18168;SDS011;49877;50.398;30.324;2022-07-06T06:43:56;10.18;;;5.35;;
18168;SDS011;49877;50.398;30.324;2022-07-06T06:46:24;10.63;;;5.38;;
18168;SDS011;49877;50.398;30.324;2022-07-06T06:48:51;10.88;;;4.70;;
18168;SDS011;49877;50.398;30.324;2022-07-06T06:51:18;12.38;;;5.20;;
18168;SDS011;49877;50.398;30.324;2022-07-06T06:53:45;8.48;;;4.22;;
18168;SDS011;49877;50.398;30.324;2022-07-06T06:56:12;5.80;;;3.97;;
18168;SDS011;49877;50.398;30.324;2022-07-06T06:58:39;8.77;;;5.13;;
18168;SDS011;49877;50.398;30.324;2022-07-06T07:01:06;7.65;;;4.00;;
18168;SDS011;49877;50.398;30.324;2022-07-06T07:03:35;8.48;;;4.32;;
18168;SDS011;49877;50.398;30.324;2022-07-06T07:06:01;6.90;;;4.40;;
18168;SDS011;49877;50.398;30.324;2022-07-06T07:08:28;6.47;;;4.13;;
18168;SDS011;49877;50.398;30.324;2022-07-06T07:10:55;8.48;;;4.45;;
18168;SDS011;49877;50.398;30.324;2022-07-06T07:13:22;37.08;;;6.95;;
18168;SDS011;49877;50.398;30.324;2022-07-06T07:15:49;20.85;;;5.50;;
18168;SDS011;49877;50.398;30.324;2022-07-06T07:18:16;9.75;;;4.97;;
18168;SDS011;49877;50.398;30.324;2022-07-06T07:20:44;6.53;;;4.60;;
18168;SDS011;49877;50.398;30.324;2022-07-06T07:23:11;10.88;;;4.43;;
18168;SDS011;49877;50.398;30.324;2022-07-06T07:25:38;6.63;;;4.03;;
18168;SDS011;49877;50.398;30.324;2022-07-06T07:28:05;5.53;;;3.85;;
18168;SDS011;49877;50.398;30.324;2022-07-06T07:30:32;13.02;;;4.32;;
18168;SDS011;49877;50.398;30.324;2022-07-06T07:32:59;10.32;;;3.63;;
18168;SDS011;49877;50.398;30.324;2022-07-06T07:35:26;4.57;;;3.95;;
18168;SDS011;49877;50.398;30.324;2022-07-06T07:37:55;8.10;;;3.67;;
18168;SDS011;49877;50.398;30.324;2022-07-06T07:40:22;10.70;;;4.22;;
18168;SDS011;49877;50.398;30.324;2022-07-06T07:42:49;4.90;;;3.40;;
18168;SDS011;49877;50.398;30.324;2022-07-06T07:45:16;7.28;;;3.22;;
18168;SDS011;49877;50.398;30.324;2022-07-06T07:47:42;7.25;;;3.78;;
18168;SDS011;49877;50.398;30.324;2022-07-06T07:50:09;6.95;;;3.70;;
18168;SDS011;49877;50.398;30.324;2022-07-06T07:52:37;11.00;;;7.40;;
18168;SDS011;49877;50.398;30.324;2022-07-06T07:55:06;5.82;;;3.70;;
18168;SDS011;49877;50.398;30.324;2022-07-06T07:57:34;5.65;;;3.28;;
18168;SDS011;49877;50.398;30.324;2022-07-06T08:00:01;4.75;;;3.78;;
18168;SDS011;49877;50.398;30.324;2022-07-06T08:02:29;5.32;;;3.25;;
18168;SDS011;49877;50.398;30.324;2022-07-06T08:04:56;5.07;;;3.38;;
18168;SDS011;49877;50.398;30.324;2022-07-06T08:07:23;6.15;;;3.95;;
18168;SDS011;49877;50.398;30.324;2022-07-06T08:09:50;3.90;;;3.28;;
18168;SDS011;49877;50.398;30.324;2022-07-06T08:12:18;4.63;;;3.20;;
18168;SDS011;49877;50.398;30.324;2022-07-06T08:14:45;7.35;;;3.67;;
18168;SDS011;49877;50.398;30.324;2022-07-06T08:17:12;5.85;;;3.30;;
18168;SDS011;49877;50.398;30.324;2022-07-06T08:19:39;5.30;;;3.70;;
18168;SDS011;49877;50.398;30.324;2022-07-06T08:22:05;8.73;;;3.65;;
18168;SDS011;49877;50.398;30.324;2022-07-06T08:24:33;21.75;;;4.93;;
18168;SDS011;49877;50.398;30.324;2022-07-06T08:27:00;26.65;;;4.70;;
18168;SDS011;49877;50.398;30.324;2022-07-06T08:29:29;10.07;;;3.67;;
18168;SDS011;49877;50.398;30.324;2022-07-06T08:31:56;8.75;;;3.58;;
18168;SDS011;49877;50.398;30.324;2022-07-06T08:34:23;10.55;;;4.15;;
18168;SDS011;49877;50.398;30.324;2022-07-06T08:36:50;10.02;;;3.60;;
18168;SDS011;49877;50.398;30.324;2022-07-06T08:39:17;7.90;;;3.65;;
18168;SDS011;49877;50.398;30.324;2022-07-06T08:41:44;9.50;;;3.63;;
18168;SDS011;49877;50.398;30.324;2022-07-06T08:44:13;9.18;;;3.40;;
18168;SDS011;49877;50.398;30.324;2022-07-06T08:46:41;12.98;;;4.10;;
18168;SDS011;49877;50.398;30.324;2022-07-06T08:49:08;6.65;;;3.80;;
18168;SDS011;49877;50.398;30.324;2022-07-06T08:51:39;5.10;;;3.53;;
18168;SDS011;49877;50.398;30.324;2022-07-06T08:54:07;41.20;;;7.25;;
18168;SDS011;49877;50.398;30.324;2022-07-06T08:56:34;22.40;;;5.03;;
18168;SDS011;49877;50.398;30.324;2022-07-06T08:59:02;14.35;;;4.10;;
18168;SDS011;49877;50.398;30.324;2022-07-06T09:01:29;18.70;;;4.10;;
18168;SDS011;49877;50.398;30.324;2022-07-06T09:03:57;6.10;;;3.95;;
18168;SDS011;49877;50.398;30.324;2022-07-06T09:06:26;8.50;;;4.00;;
18168;SDS011;49877;50.398;30.324;2022-07-06T09:08:53;26.48;;;4.85;;
18168;SDS011;49877;50.398;30.324;2022-07-06T09:11:22;9.10;;;3.67;;
18168;SDS011;49877;50.398;30.324;2022-07-06T09:13:50;12.35;;;3.90;;
18168;SDS011;49877;50.398;30.324;2022-07-06T09:16:17;7.72;;;3.47;;
18168;SDS011;49877;50.398;30.324;2022-07-06T09:18:50;6.65;;;3.65;;
18168;SDS011;49877;50.398;30.324;2022-07-06T09:21:23;6.00;;;3.53;;
18168;SDS011;49877;50.398;30.324;2022-07-06T09:23:54;8.77;;;3.70;;
18168;SDS011;49877;50.398;30.324;2022-07-06T09:26:21;5.53;;;4.00;;
18168;SDS011;49877;50.398;30.324;2022-07-06T09:28:48;9.48;;;4.00;;
18168;SDS011;49877;50.398;30.324;2022-07-06T09:31:15;13.13;;;4.40;;
18168;SDS011;49877;50.398;30.324;2022-07-06T09:33:55;8.65;;;4.28;;
18168;SDS011;49877;50.398;30.324;2022-07-06T09:39:16;8.27;;;4.30;;
18168;SDS011;49877;50.398;30.324;2022-07-06T09:41:44;8.15;;;4.53;;
18168;SDS011;49877;50.398;30.324;2022-07-06T09:44:12;9.60;;;4.53;;
18168;SDS011;49877;50.398;30.324;2022-07-06T09:46:39;7.47;;;4.38;;
18168;SDS011;49877;50.398;30.324;2022-07-06T09:49:07;8.35;;;4.82;;
18168;SDS011;49877;50.398;30.324;2022-07-06T09:51:35;7.97;;;4.97;;
18168;SDS011;49877;50.398;30.324;2022-07-06T09:54:05;7.53;;;4.38;;
18168;SDS011;49877;50.398;30.324;2022-07-06T09:56:37;7.03;;;4.68;;
18168;SDS011;49877;50.398;30.324;2022-07-06T09:59:13;5.95;;;4.20;;
18168;SDS011;49877;50.398;30.324;2022-07-06T10:01:41;8.63;;;5.10;;
18168;SDS011;49877;50.398;30.324;2022-07-06T10:04:09;9.02;;;4.57;;
18168;SDS011;49877;50.398;30.324;2022-07-06T10:06:38;7.80;;;4.45;;
18168;SDS011;49877;50.398;30.324;2022-07-06T10:09:08;8.75;;;4.47;;
18168;SDS011;49877;50.398;30.324;2022-07-06T10:11:37;7.43;;;4.47;;
18168;SDS011;49877;50.398;30.324;2022-07-06T10:14:05;9.55;;;4.97;;
18168;SDS011;49877;50.398;30.324;2022-07-06T10:16:33;50.22;;;6.45;;
18168;SDS011;49877;50.398;30.324;2022-07-06T10:19:04;38.95;;;6.90;;
18168;SDS011;49877;50.398;30.324;2022-07-06T10:21:32;13.00;;;5.15;;
18168;SDS011;49877;50.398;30.324;2022-07-06T10:24:01;61.25;;;9.07;;
18168;SDS011;49877;50.398;30.324;2022-07-06T10:26:30;24.13;;;5.57;;
18168;SDS011;49877;50.398;30.324;2022-07-06T10:28:58;23.60;;;5.90;;
18168;SDS011;49877;50.398;30.324;2022-07-06T10:31:26;22.25;;;4.90;;
18168;SDS011;49877;50.398;30.324;2022-07-06T10:33:55;9.98;;;4.20;;
18168;SDS011;49877;50.398;30.324;2022-07-06T10:36:23;7.65;;;4.82;;
18168;SDS011;49877;50.398;30.324;2022-07-06T10:38:51;6.88;;;4.32;;
18168;SDS011;49877;50.398;30.324;2022-07-06T10:41:29;9.90;;;4.55;;
18168;SDS011;49877;50.398;30.324;2022-07-06T10:43:57;13.27;;;4.88;;
18168;SDS011;49877;50.398;30.324;2022-07-06T10:46:40;7.97;;;4.40;;
18168;SDS011;49877;50.398;30.324;2022-07-06T10:49:14;6.80;;;4.10;;
18168;SDS011;49877;50.398;30.324;2022-07-06T10:51:42;15.63;;;5.18;;
18168;SDS011;49877;50.398;30.324;2022-07-06T10:54:09;7.03;;;4.25;;
18168;SDS011;49877;50.398;30.324;2022-07-06T10:56:39;25.23;;;6.78;;
18168;SDS011;49877;50.398;30.324;2022-07-06T10:59:08;12.15;;;5.05;;
18168;SDS011;49877;50.398;30.324;2022-07-06T11:01:36;8.98;;;4.20;;
18168;SDS011;49877;50.398;30.324;2022-07-06T11:04:05;7.88;;;4.45;;
18168;SDS011;49877;50.398;30.324;2022-07-06T11:06:34;17.52;;;4.97;;
18168;SDS011;49877;50.398;30.324;2022-07-06T11:09:02;8.00;;;5.07;;
18168;SDS011;49877;50.398;30.324;2022-07-06T11:11:41;7.22;;;4.30;;
18168;SDS011;49877;50.398;30.324;2022-07-06T11:14:11;9.60;;;4.60;;
18168;SDS011;49877;50.398;30.324;2022-07-06T11:16:40;7.80;;;4.75;;
18168;SDS011;49877;50.398;30.324;2022-07-06T11:19:27;6.93;;;4.28;;
18168;SDS011;49877;50.398;30.324;2022-07-06T11:21:55;7.05;;;4.30;;
18168;SDS011;49877;50.398;30.324;2022-07-06T11:24:25;7.30;;;4.55;;
18168;SDS011;49877;50.398;30.324;2022-07-06T11:26:55;6.53;;;4.60;;
18168;SDS011;49877;50.398;30.324;2022-07-06T11:29:24;6.53;;;4.75;;
18168;SDS011;49877;50.398;30.324;2022-07-06T11:31:53;9.43;;;4.88;;
18168;SDS011;49877;50.398;30.324;2022-07-06T11:34:21;22.30;;;5.78;;
18168;SDS011;49877;50.398;30.324;2022-07-06T11:36:53;9.57;;;5.25;;
18168;SDS011;49877;50.398;30.324;2022-07-06T11:39:22;10.10;;;4.50;;
18168;SDS011;49877;50.398;30.324;2022-07-06T11:41:52;6.07;;;4.28;;
18168;SDS011;49877;50.398;30.324;2022-07-06T11:44:22;22.05;;;5.10;;
18168;SDS011;49877;50.398;30.324;2022-07-06T11:46:49;6.13;;;4.32;;
18168;SDS011;49877;50.398;30.324;2022-07-06T11:49:17;8.73;;;4.65;;
18168;SDS011;49877;50.398;30.324;2022-07-06T11:51:44;7.82;;;4.85;;
18168;SDS011;49877;50.398;30.324;2022-07-06T11:54:13;6.72;;;4.65;;
18168;SDS011;49877;50.398;30.324;2022-07-06T11:56:47;15.20;;;4.90;;
18168;SDS011;49877;50.398;30.324;2022-07-06T11:59:20;23.67;;;5.78;;
18168;SDS011;49877;50.398;30.324;2022-07-06T12:01:48;10.13;;;5.47;;
18168;SDS011;49877;50.398;30.324;2022-07-06T12:04:15;7.18;;;4.50;;
18168;SDS011;49877;50.398;30.324;2022-07-06T12:06:43;7.32;;;4.85;;
18168;SDS011;49877;50.398;30.324;2022-07-06T12:09:11;9.93;;;4.75;;
18168;SDS011;49877;50.398;30.324;2022-07-06T12:11:39;11.32;;;5.20;;
18168;SDS011;49877;50.398;30.324;2022-07-06T12:14:12;7.20;;;4.72;;
18168;SDS011;49877;50.398;30.324;2022-07-06T12:16:41;10.77;;;5.10;;
18168;SDS011;49877;50.398;30.324;2022-07-06T12:19:08;7.32;;;4.22;;
18168;SDS011;49877;50.398;30.324;2022-07-06T12:21:36;9.98;;;4.50;;
18168;SDS011;49877;50.398;30.324;2022-07-06T12:24:09;11.18;;;3.83;;
18168;SDS011;49877;50.398;30.324;2022-07-06T12:26:38;4.85;;;3.70;;
18168;SDS011;49877;50.398;30.324;2022-07-06T12:29:07;7.78;;;4.20;;
18168;SDS011;49877;50.398;30.324;2022-07-06T12:31:35;8.73;;;4.60;;
18168;SDS011;49877;50.398;30.324;2022-07-06T12:34:05;7.90;;;4.30;;
18168;SDS011;49877;50.398;30.324;2022-07-06T12:36:42;6.97;;;4.30;;
18168;SDS011;49877;50.398;30.324;2022-07-06T12:39:10;9.25;;;4.55;;
18168;SDS011;49877;50.398;30.324;2022-07-06T12:41:41;7.22;;;4.05;;
18168;SDS011;49877;50.398;30.324;2022-07-06T12:44:10;8.32;;;4.35;;
18168;SDS011;49877;50.398;30.324;2022-07-06T12:46:38;5.38;;;4.22;;
18168;SDS011;49877;50.398;30.324;2022-07-06T12:49:18;8.82;;;3.97;;
18168;SDS011;49877;50.398;30.324;2022-07-06T12:51:48;6.85;;;3.70;;
18168;SDS011;49877;50.398;30.324;2022-07-06T12:54:26;7.30;;;4.43;;
18168;SDS011;49877;50.398;30.324;2022-07-06T12:56:55;8.00;;;4.72;;
18168;SDS011;49877;50.398;30.324;2022-07-06T12:59:33;8.55;;;4.35;;
18168;SDS011;49877;50.398;30.324;2022-07-06T13:02:02;8.30;;;4.82;;
18168;SDS011;49877;50.398;30.324;2022-07-06T13:04:32;11.13;;;5.32;;
18168;SDS011;49877;50.398;30.324;2022-07-06T13:06:59;10.07;;;5.45;;
18168;SDS011;49877;50.398;30.324;2022-07-06T13:09:27;10.77;;;5.28;;
18168;SDS011;49877;50.398;30.324;2022-07-06T13:11:54;10.48;;;5.20;;
18168;SDS011;49877;50.398;30.324;2022-07-06T13:14:21;7.90;;;5.18;;
18168;SDS011;49877;50.398;30.324;2022-07-06T13:34:37;8.73;;;4.90;;
18168;SDS011;49877;50.398;30.324;2022-07-06T13:37:04;6.85;;;4.18;;
18168;SDS011;49877;50.398;30.324;2022-07-06T13:39:32;7.20;;;3.67;;
18168;SDS011;49877;50.398;30.324;2022-07-06T13:41:59;10.60;;;4.03;;
18168;SDS011;49877;50.398;30.324;2022-07-06T13:44:26;18.90;;;7.30;;
18168;SDS011;49877;50.398;30.324;2022-07-06T13:46:54;12.80;;;6.97;;
18168;SDS011;49877;50.398;30.324;2022-07-06T13:49:21;12.40;;;5.50;;
18168;SDS011;49877;50.398;30.324;2022-07-06T13:51:50;8.57;;;5.47;;
18168;SDS011;49877;50.398;30.324;2022-07-06T13:54:17;11.80;;;6.17;;
18168;SDS011;49877;50.398;30.324;2022-07-06T13:56:44;10.63;;;5.70;;
18168;SDS011;49877;50.398;30.324;2022-07-06T13:59:10;11.63;;;6.00;;
18168;SDS011;49877;50.398;30.324;2022-07-06T14:01:37;10.40;;;6.00;;
18168;SDS011;49877;50.398;30.324;2022-07-06T14:04:04;7.87;;;6.33;;
18168;SDS011;49877;50.398;30.324;2022-07-06T14:06:31;12.27;;;6.40;;
18168;SDS011;49877;50.398;30.324;2022-07-06T14:09:00;11.40;;;6.43;;
18168;SDS011;49877;50.398;30.324;2022-07-06T14:11:27;14.20;;;8.10;;
18168;SDS011;49877;50.398;30.324;2022-07-06T14:13:54;10.40;;;6.90;;
18168;SDS011;49877;50.398;30.324;2022-07-06T14:16:21;12.67;;;7.20;;
18168;SDS011;49877;50.398;30.324;2022-07-06T14:18:48;10.67;;;6.70;;
18168;SDS011;49877;50.398;30.324;2022-07-06T14:21:16;8.33;;;6.20;;
18168;SDS011;49877;50.398;30.324;2022-07-06T14:23:43;13.40;;;7.63;;
18168;SDS011;49877;50.398;30.324;2022-07-06T14:26:11;10.97;;;7.30;;
18168;SDS011;49877;50.398;30.324;2022-07-06T14:28:38;9.77;;;6.60;;
18168;SDS011;49877;50.398;30.324;2022-07-06T14:31:05;13.43;;;6.35;;
18168;SDS011;49877;50.398;30.324;2022-07-06T14:33:32;10.33;;;6.13;;
18168;SDS011;49877;50.398;30.324;2022-07-06T14:35:59;8.23;;;5.72;;
18168;SDS011;49877;50.398;30.324;2022-07-06T14:38:26;8.57;;;5.50;;
18168;SDS011;49877;50.398;30.324;2022-07-06T14:40:53;11.77;;;6.65;;
18168;SDS011;49877;50.398;30.324;2022-07-06T14:43:21;7.85;;;5.93;;
18168;SDS011;49877;50.398;30.324;2022-07-06T14:45:50;7.32;;;5.50;;
18168;SDS011;49877;50.398;30.324;2022-07-06T14:48:18;9.23;;;6.95;;
18168;SDS011;49877;50.398;30.324;2022-07-06T14:50:45;11.98;;;6.80;;
18168;SDS011;49877;50.398;30.324;2022-07-06T14:53:12;10.02;;;6.30;;
18168;SDS011;49877;50.398;30.324;2022-07-06T14:55:39;9.10;;;6.25;;